createdAt,value
2022-12-12T00:00:46.616Z,9.37
2022-12-12T00:06:09.294Z,10.30
2022-12-12T00:11:32.393Z,10.00
2022-12-12T00:16:54.862Z,10.10
2022-12-12T00:22:17.266Z,11.40
2022-12-12T00:27:39.748Z,10.43
2022-12-12T00:33:03.097Z,11.57
2022-12-12T00:38:25.608Z,10.07
2022-12-12T00:43:48.420Z,10.60
2022-12-12T00:49:10.838Z,10.50
2022-12-12T00:54:33.129Z,11.47
2022-12-12T00:59:55.370Z,10.80
2022-12-12T01:05:18.480Z,10.90
2022-12-12T01:10:41.623Z,11.60
2022-12-12T01:16:06.215Z,9.93
2022-12-12T01:21:28.572Z,10.67
2022-12-12T01:26:51.208Z,9.77
2022-12-12T01:32:13.356Z,9.37
2022-12-12T01:37:36.608Z,9.93
2022-12-12T01:42:59.705Z,10.33
2022-12-12T01:48:27.241Z,10.20
2022-12-12T01:53:54.369Z,9.47
2022-12-12T01:59:21.120Z,9.33
2022-12-12T02:04:43.716Z,8.53
2022-12-12T02:10:06.337Z,9.40
2022-12-12T02:15:42.241Z,7.87
2022-12-12T02:21:23.665Z,9.53
2022-12-12T02:27:25.839Z,8.57
2022-12-12T02:33:06.793Z,9.43
2022-12-12T02:38:47.891Z,9.43
2022-12-12T02:44:28.140Z,8.50
2022-12-12T02:49:57.146Z,8.43
2022-12-12T02:55:20.484Z,9.43
2022-12-12T03:01:15.026Z,8.73
2022-12-12T03:07:34.195Z,7.93
2022-12-12T03:13:08.877Z,8.77
2022-12-12T03:18:41.596Z,8.83
2022-12-12T03:24:12.827Z,8.03
2022-12-12T03:29:41.082Z,9.60
2022-12-12T03:35:19.943Z,8.73
2022-12-12T03:40:52.053Z,7.77
2022-12-12T03:46:19.792Z,8.50
2022-12-12T03:52:10.402Z,8.60
2022-12-12T03:57:39.848Z,7.47
2022-12-12T04:03:26.462Z,9.50
2022-12-12T04:09:08.549Z,7.97
2022-12-12T04:14:41.986Z,7.17
2022-12-12T04:20:32.565Z,6.90
2022-12-12T04:26:13.264Z,7.90
2022-12-12T04:31:41.018Z,9.03
2022-12-12T04:37:06.669Z,6.73
2022-12-12T04:42:34.302Z,7.03
2022-12-12T04:47:58.723Z,6.60
2022-12-12T04:53:29.641Z,7.50
2022-12-12T04:58:51.993Z,7.27
2022-12-12T05:04:46.397Z,7.27
2022-12-12T05:10:15.999Z,7.37
2022-12-12T05:15:41.827Z,7.17
2022-12-12T05:21:07.404Z,6.60
2022-12-12T05:26:32.977Z,6.13
2022-12-12T05:31:55.219Z,6.40
2022-12-12T05:37:17.287Z,6.27
2022-12-12T05:42:40.786Z,6.47
2022-12-12T05:48:03.010Z,6.50
2022-12-12T05:53:25.169Z,5.70
2022-12-12T05:58:47.447Z,5.63
2022-12-12T06:04:10.319Z,5.40
2022-12-12T06:09:32.588Z,5.27
2022-12-12T06:14:54.979Z,5.50
2022-12-12T06:20:18.271Z,4.63
2022-12-12T06:25:40.812Z,4.17
2022-12-12T06:31:09.680Z,4.63
2022-12-12T06:36:33.791Z,5.53
2022-12-12T06:41:56.245Z,4.60
2022-12-12T06:47:18.365Z,4.23
2022-12-12T06:52:40.681Z,3.77
2022-12-12T06:58:03.086Z,3.77
2022-12-12T07:03:25.300Z,3.87
2022-12-12T07:08:48.236Z,3.67
2022-12-12T07:14:11.104Z,3.53
2022-12-12T07:19:33.744Z,3.73
2022-12-12T07:24:56.368Z,4.37
2022-12-12T07:30:18.551Z,3.63
2022-12-12T07:35:41.814Z,3.70
2022-12-12T07:41:06.593Z,4.67
2022-12-12T07:46:28.928Z,3.50
2022-12-12T07:51:51.551Z,3.80
2022-12-12T07:57:14.108Z,4.57
2022-12-12T08:02:36.580Z,4.77
2022-12-12T08:07:58.974Z,5.93
2022-12-12T08:13:21.945Z,6.23
2022-12-12T08:18:44.788Z,3.63
2022-12-12T08:24:07.266Z,4.40
2022-12-12T08:29:29.573Z,3.60
2022-12-12T08:34:56.830Z,3.80
2022-12-12T08:40:19.067Z,3.77
2022-12-12T08:45:41.943Z,4.63
2022-12-12T08:51:04.414Z,3.93
2022-12-12T08:56:26.843Z,4.60
2022-12-12T09:01:49.689Z,5.10
2022-12-12T09:07:13.635Z,4.27
2022-12-12T09:12:41.474Z,4.47
2022-12-12T09:18:04.973Z,4.53
2022-12-12T09:23:28.581Z,4.37
2022-12-12T09:28:51.125Z,3.17
2022-12-12T09:34:14.443Z,3.53
2022-12-12T09:39:36.680Z,4.00
2022-12-12T09:45:02.604Z,10.10
2022-12-12T09:50:31.943Z,3.50
2022-12-12T09:56:12.914Z,4.27
2022-12-12T10:01:46.707Z,4.13
2022-12-12T10:07:19.456Z,3.17
2022-12-12T10:12:41.949Z,4.10
2022-12-12T10:18:10.014Z,3.40
2022-12-12T10:23:40.210Z,3.90
2022-12-12T10:29:16.526Z,3.57
2022-12-12T10:34:55.332Z,3.63
2022-12-12T10:40:33.081Z,3.13
2022-12-12T10:46:28.527Z,4.00
2022-12-12T10:51:52.245Z,4.00
2022-12-12T10:57:20.225Z,4.13
2022-12-12T11:02:44.356Z,3.80
2022-12-12T11:08:20.734Z,4.60
2022-12-12T11:13:47.171Z,4.00
2022-12-12T11:19:25.603Z,3.37
2022-12-12T11:24:50.328Z,3.57
2022-12-12T11:30:36.472Z,3.97
2022-12-12T11:35:59.669Z,4.40
2022-12-12T11:41:23.001Z,3.33
2022-12-12T11:46:45.514Z,2.70
2022-12-12T11:52:24.048Z,3.33
2022-12-12T11:58:01.928Z,2.87
2022-12-12T12:03:38.314Z,3.17
2022-12-12T12:09:32.604Z,3.63
2022-12-12T12:15:03.999Z,3.10
2022-12-12T12:21:13.838Z,3.30
2022-12-12T12:27:04.414Z,3.50
2022-12-12T12:32:32.408Z,3.67
2022-12-12T12:38:06.986Z,4.10
2022-12-12T12:43:41.053Z,3.90
2022-12-12T12:49:18.386Z,4.47
2022-12-12T12:54:45.735Z,4.60
2022-12-12T13:00:18.705Z,5.53
2022-12-12T13:05:50.568Z,5.90
2022-12-12T13:11:22.829Z,5.20
2022-12-12T13:16:46.001Z,6.40
2022-12-12T13:22:13.462Z,5.33
2022-12-12T13:27:46.158Z,6.33
2022-12-12T13:33:14.245Z,5.23
2022-12-12T13:38:37.720Z,3.80
2022-12-12T13:44:00.564Z,3.13
2022-12-12T13:49:47.210Z,2.97
2022-12-12T13:55:18.469Z,3.77
2022-12-12T14:00:41.842Z,3.87
2022-12-12T14:06:12.438Z,4.20
2022-12-12T14:11:37.542Z,2.70
2022-12-12T14:17:00.154Z,2.67
2022-12-12T14:22:49.688Z,2.50
2022-12-12T14:28:29.090Z,3.00
2022-12-12T14:34:07.501Z,2.63
2022-12-12T14:39:56.015Z,3.50
2022-12-12T14:45:25.411Z,3.27
2022-12-12T14:51:14.562Z,3.50
2022-12-12T14:56:47.678Z,3.33
2022-12-12T15:02:21.762Z,3.63
2022-12-12T15:07:44.465Z,4.57
2022-12-12T15:13:16.749Z,4.10
2022-12-12T15:18:39.090Z,4.47
2022-12-12T15:24:02.385Z,4.13
2022-12-12T15:29:29.817Z,4.40
2022-12-12T15:35:16.452Z,4.17
2022-12-12T15:40:39.822Z,4.17
2022-12-12T15:46:14.430Z,4.03
2022-12-12T15:51:37.412Z,3.90
2022-12-12T15:56:59.481Z,4.50
2022-12-12T16:02:26.422Z,6.57
